This is the latest recevied weather packets stored in our database for station/object AB8XS. If no packets are shown the sender has not sent any weather packets the latest 10 day(s).
| Time | Temp. | Humidity | Pressure | Rain* | Wind** | Luminosity | Snow |
|---|---|---|---|---|---|---|---|
| 1777575631 | 10° C | 68% | 1015.4 hPa | 0 mm | - | 804 W/m² | - |
| 1777572050 | 10° C | 72% | 1015.6 hPa | 0 mm | - | 900 W/m² | - |
| 1777571741 | 10° C | 71% | 1015.6 hPa | 0 mm | - | 899 W/m² | - |
| 1777570831 | 9.44° C | 71% | 1015.8 hPa | 0 mm | - | 891 W/m² | - |
| 1777570546 | 9.44° C | 71% | 1015.8 hPa | 0 mm | - | 854 W/m² | - |
| 1777564546 | 8.33° C | 63% | 1015.7 hPa | 0 mm | - | 63 W/m² | - |
| 1777561831 | 7.78° C | 68% | 1015.7 hPa | 0 mm | - | 67 W/m² | - |
| 1777560361 | 7.78° C | 71% | 1015.6 hPa | 0 mm | - | 46 W/m² | - |
| 1777559431 | 7.22° C | 72% | 1015.5 hPa | 0 mm | - | 49 W/m² | - |
| 1777559146 | 7.22° C | 74% | 1015.5 hPa | 0 mm | - | 202 W/m² | - |
| 1777556431 | 6.11° C | 82% | 1015.3 hPa | 0 mm | - | 59 W/m² | - |
| 1777555831 | 6.11° C | 84% | 1015.2 hPa | 0 mm | - | 68 W/m² | - |
| 1777555546 | 5.56° C | 86% | 1015.2 hPa | 0 mm | - | 59 W/m² | - |
| 1777554631 | 5° C | 88% | 1015.2 hPa | 0 mm | - | 101 W/m² | - |
| 1777553131 | 4.44° C | 91% | 1015.1 hPa | 0 mm | - | 27 W/m² | - |
| 1777552231 | 4.44° C | 92% | 1014.9 hPa | 0 mm | - | 24 W/m² | - |
| 1777550431 | 3.89° C | 94% | 1015 hPa | 0 mm | - | 25 W/m² | - |
| 1777545331 | 3.33° C | 89% | 1014.4 hPa | 0 mm | - | 0 W/m² | - |
| 1777543831 | 3.89° C | 89% | 1014.4 hPa | 0 mm | - | 0 W/m² | - |
| 1777542361 | 4.44° C | 86% | 1014.4 hPa | 0 mm | - | 0 W/m² | - |
| 1777542031 | 4.44° C | 86% | 1014.4 hPa | 0 mm | - | 0 W/m² | - |
| 1777540831 | 5° C | 85% | 1014.6 hPa | 0 mm | - | 0 W/m² | - |
| 1777537531 | 5.56° C | 86% | 1014.5 hPa | 0 mm | - | 0 W/m² | - |
| 1777536631 | 5.56° C | 86% | 1014.4 hPa | 0 mm | - | 0 W/m² | - |
| 1777535431 | 5.56° C | 88% | 1014.5 hPa | 0 mm | - | 0 W/m² | - |
* Rain latest hour (hover to see other rain measurements)
** Current wind speed in m/s (hover to see current wind gust speed)